Vestal, New York
Current Conditions -  °F | °C
As of 5:53 PM on Thursday 27 Nov 2014 (Local Time) from KBGM Reporting Station
Few Clouds Few Clouds  
Wind Chill: 18°   Ceiling: Unl
Heat Index: 24°   Visibility: 10mi
Dew Point: 22°   Wind: 5mph
Humidity: 91%   Direction: 300°WNW
Pressure: 29.99"   Gusts: NA
Location:  42.08°N, 76.05°W
Report Text: KBGM 272253Z 30004KT 10SM FEW055 FEW110 M04/M06 A2999 RMK AO2 SNE29 SLP175 P0000 T10441056 $
Loading
Personal Weather Stations






























Interactive Weather Map New forecast layout! Learn more

10-Day Weather Forecast

Advertisements
Track Severe Weather on mobile